createdAt,value
2022-11-10T00:00:18.809Z,95701.13
2022-11-10T00:02:45.213Z,95709.97
2022-11-10T00:05:14.467Z,95712.44
2022-11-10T00:07:41.105Z,95698.03
2022-11-10T00:10:07.889Z,95669.16
2022-11-10T00:12:34.395Z,95656.22
2022-11-10T00:15:19.410Z,95650.50
2022-11-10T00:17:46.022Z,95649.66
2022-11-10T00:20:12.507Z,95657.38
2022-11-10T00:22:39.782Z,95655.75
2022-11-10T00:25:06.681Z,95617.38
2022-11-10T00:27:33.481Z,95626.22
2022-11-10T00:30:00.088Z,95617.72
2022-11-10T00:32:26.537Z,95609.19
2022-11-10T00:34:52.895Z,95607.41
2022-11-10T00:37:19.258Z,95616.91
2022-11-10T00:39:45.599Z,95622.97
2022-11-10T00:42:12.016Z,95638.72
2022-11-10T00:44:38.377Z,95621.16
2022-11-10T00:47:04.896Z,95611.66
2022-11-10T00:49:31.344Z,95608.84
2022-11-10T00:51:57.738Z,95603.94
2022-11-10T00:54:24.089Z,95582.16
2022-11-10T00:56:50.441Z,95602.47
2022-11-10T00:59:17.046Z,95600.06
2022-11-10T01:01:43.413Z,95610.19
2022-11-10T01:04:09.760Z,95608.88
2022-11-10T01:06:36.165Z,95614.81
2022-11-10T01:09:02.582Z,95602.69
2022-11-10T01:11:29.021Z,95601.69
2022-11-10T01:13:56.050Z,95609.56
2022-11-10T01:16:27.193Z,95635.63
2022-11-10T01:18:55.660Z,95644.28
2022-11-10T01:21:22.140Z,95655.78
2022-11-10T01:23:48.483Z,95663.63
2022-11-10T01:26:14.910Z,95670.69
2022-11-10T01:28:41.285Z,95677.38
2022-11-10T01:31:09.415Z,95684.94
2022-11-10T01:33:35.881Z,95686.63
2022-11-10T01:36:02.428Z,95685.31
2022-11-10T01:38:33.626Z,95657.41
2022-11-10T01:41:00.046Z,95653.84
2022-11-10T01:43:26.543Z,95638.91
2022-11-10T01:45:54.378Z,95639.06
2022-11-10T01:48:29.353Z,95634.47
2022-11-10T01:50:56.062Z,95628.56
2022-11-10T01:53:25.214Z,95642.22
2022-11-10T01:55:51.628Z,95616.44
2022-11-10T01:58:21.979Z,95616.81
2022-11-10T02:00:48.374Z,95584.84
2022-11-10T02:03:15.489Z,95571.28
2022-11-10T02:05:42.516Z,95541.13
2022-11-10T02:08:08.899Z,95516.94
2022-11-10T02:10:35.285Z,95496.13
2022-11-10T02:13:02.954Z,95483.56
2022-11-10T02:15:29.330Z,95471.78
2022-11-10T02:17:55.698Z,95455.09
2022-11-10T02:20:22.242Z,95422.38
2022-11-10T02:22:48.580Z,95410.28
2022-11-10T02:25:17.669Z,95373.63
2022-11-10T02:27:44.041Z,95353.19
2022-11-10T02:30:10.949Z,95333.09
2022-11-10T02:32:37.300Z,95282.53
2022-11-10T02:35:04.241Z,95262.44
2022-11-10T02:37:30.628Z,95245.72
2022-11-10T02:39:57.004Z,95231.69
2022-11-10T02:42:23.397Z,95242.50
2022-11-10T02:44:49.753Z,95231.34
2022-11-10T02:47:16.137Z,95226.19
2022-11-10T02:49:42.485Z,95204.44
2022-11-10T02:52:08.914Z,95186.28
2022-11-10T02:54:35.268Z,95183.38
2022-11-10T02:57:02.700Z,95168.81
2022-11-10T02:59:29.207Z,95145.81
2022-11-10T03:01:55.706Z,95130.44
2022-11-10T03:04:22.079Z,95106.22
2022-11-10T03:06:48.449Z,95101.38
2022-11-10T03:09:14.876Z,95104.66
2022-11-10T03:11:41.246Z,95087.06
2022-11-10T03:14:07.600Z,95081.53
2022-11-10T03:16:33.953Z,95044.09
2022-11-10T03:19:00.379Z,95037.41
2022-11-10T03:21:26.751Z,95024.03
2022-11-10T03:23:53.093Z,95023.06
2022-11-10T03:26:19.493Z,95018.81
2022-11-10T03:28:48.336Z,95013.13
2022-11-10T03:31:14.762Z,94996.59
2022-11-10T03:33:41.144Z,94992.19
2022-11-10T03:36:07.817Z,94991.75
2022-11-10T03:38:34.200Z,94991.47
2022-11-10T03:43:47.612Z,94959.44
2022-11-10T03:46:13.984Z,94966.13
2022-11-10T03:48:40.389Z,94963.72
2022-11-10T03:51:06.952Z,94941.16
2022-11-10T03:53:33.343Z,94923.50
2022-11-10T03:56:03.717Z,94950.38
2022-11-10T03:58:30.074Z,94981.75
2022-11-10T04:00:56.746Z,94992.91
2022-11-10T04:03:23.653Z,94988.13
2022-11-10T04:06:09.074Z,95013.03
2022-11-10T04:08:54.126Z,95058.91
2022-11-10T04:11:39.151Z,95106.00
2022-11-10T04:14:24.082Z,95124.00
2022-11-10T04:16:50.519Z,95138.84
2022-11-10T04:19:16.894Z,95145.09
2022-11-10T04:21:43.291Z,95135.41
2022-11-10T04:24:09.701Z,95136.88
2022-11-10T04:26:38.726Z,95208.81
2022-11-10T04:29:06.709Z,95208.00
2022-11-10T04:31:33.601Z,95207.16
2022-11-10T04:33:59.948Z,95224.19
2022-11-10T04:36:28.152Z,95209.66
2022-11-10T04:38:55.462Z,95402.16
2022-11-10T04:41:22.373Z,95440.06
2022-11-10T04:43:48.764Z,95452.16
2022-11-10T04:46:22.580Z,95466.84
2022-11-10T04:48:49.529Z,95478.94
2022-11-10T04:51:16.555Z,95477.31
2022-11-10T04:53:42.987Z,95497.22
2022-11-10T04:56:19.284Z,95506.72
2022-11-10T04:58:45.681Z,95538.41
2022-11-10T05:01:13.343Z,95532.88
2022-11-10T05:03:39.906Z,95521.25
2022-11-10T05:06:06.428Z,95529.25
2022-11-10T05:08:32.944Z,95525.50
2022-11-10T05:10:59.398Z,95509.00
2022-11-10T05:13:25.779Z,95405.72
2022-11-10T05:15:52.590Z,95347.88
2022-11-10T05:18:19.089Z,95310.31
2022-11-10T05:20:45.687Z,95232.72
2022-11-10T05:23:30.732Z,95226.31
2022-11-10T05:25:57.189Z,95219.47
2022-11-10T05:28:23.766Z,95208.53
2022-11-10T05:30:50.201Z,95234.69
2022-11-10T05:33:16.612Z,95221.78
2022-11-10T05:35:44.082Z,95223.41
2022-11-10T05:38:10.517Z,95216.56
2022-11-10T05:40:36.913Z,95214.56
2022-11-10T05:43:03.316Z,95230.25
2022-11-10T05:45:29.684Z,95225.38
2022-11-10T05:47:56.288Z,95221.13
2022-11-10T05:50:22.870Z,95234.84
2022-11-10T05:52:50.730Z,95233.22
2022-11-10T05:55:18.597Z,95244.16
2022-11-10T05:57:45.818Z,95238.44
2022-11-10T06:00:21.764Z,95247.59
2022-11-10T06:03:04.286Z,95244.34
2022-11-10T06:05:32.254Z,95240.09
2022-11-10T06:07:58.834Z,95215.59
2022-11-10T06:10:25.251Z,95204.63
2022-11-10T06:12:51.723Z,95211.66
2022-11-10T06:15:18.168Z,95208.03
2022-11-10T06:17:44.850Z,95222.09
2022-11-10T06:20:11.900Z,95213.94
2022-11-10T06:22:38.463Z,95219.78
2022-11-10T06:25:05.263Z,95223.06
2022-11-10T06:27:31.751Z,95226.97
2022-11-10T06:29:58.119Z,95224.38
2022-11-10T06:32:24.465Z,95213.91
2022-11-10T06:34:50.857Z,95215.53
2022-11-10T06:37:17.283Z,95212.25
2022-11-10T06:39:43.659Z,95219.16
2022-11-10T06:42:10.045Z,95209.94
2022-11-10T06:44:36.394Z,95218.47
2022-11-10T06:47:02.796Z,95232.53
2022-11-10T06:49:29.201Z,95216.47
2022-11-10T06:51:55.565Z,95213.84
2022-11-10T06:54:22.251Z,95200.47
2022-11-10T06:56:48.666Z,95191.97
2022-11-10T06:59:15.019Z,95179.88
2022-11-10T07:01:41.430Z,95187.09
2022-11-10T07:04:19.769Z,95186.75
2022-11-10T07:06:47.720Z,95182.69
2022-11-10T07:09:14.630Z,95192.94
2022-11-10T07:11:41.040Z,95200.78
2022-11-10T07:14:07.440Z,95210.59
2022-11-10T07:16:33.796Z,95229.84
2022-11-10T07:19:00.226Z,95251.13
2022-11-10T07:21:26.565Z,95258.97
2022-11-10T07:23:52.953Z,95255.19
2022-11-10T07:26:19.347Z,95249.16
2022-11-10T07:28:45.771Z,95248.81
2022-11-10T07:31:12.181Z,95244.88
2022-11-10T07:33:38.565Z,95228.84
2022-11-10T07:36:05.483Z,95210.53
2022-11-10T07:38:31.920Z,95200.34
2022-11-10T07:40:58.322Z,95221.78
2022-11-10T07:43:25.298Z,95223.25
2022-11-10T07:45:52.537Z,95225.16
2022-11-10T07:48:19.060Z,95236.25
2022-11-10T07:50:45.733Z,95248.72
2022-11-10T07:53:13.549Z,95262.41
2022-11-10T07:55:41.164Z,95288.94
2022-11-10T07:58:07.756Z,95297.44
2022-11-10T08:00:34.533Z,95301.88
2022-11-10T08:03:02.667Z,95295.81
2022-11-10T08:05:29.106Z,95303.81
2022-11-10T08:07:55.646Z,95313.13
2022-11-10T08:10:22.038Z,95304.28
2022-11-10T08:12:58.691Z,95293.03
2022-11-10T08:15:25.508Z,95295.47
2022-11-10T08:17:51.941Z,95301.16
2022-11-10T08:20:18.441Z,95308.03
2022-11-10T08:22:44.914Z,95316.19
2022-11-10T08:25:11.365Z,95320.25
2022-11-10T08:27:37.745Z,95338.09
2022-11-10T08:30:04.516Z,95343.78
2022-11-10T08:32:30.868Z,95346.41
2022-11-10T08:34:57.232Z,95344.41
2022-11-10T08:37:24.096Z,95347.03
2022-11-10T08:39:50.447Z,95374.03
2022-11-10T08:42:16.788Z,95392.66
2022-11-10T08:44:43.152Z,95400.81
2022-11-10T08:47:09.493Z,95413.06
2022-11-10T08:49:35.974Z,95414.38
2022-11-10T08:52:02.402Z,95424.81
2022-11-10T08:54:28.817Z,95437.88
2022-11-10T08:56:55.234Z,95474.16
2022-11-10T08:59:21.648Z,95489.22
2022-11-10T09:01:47.982Z,95523.91
2022-11-10T09:04:15.833Z,95551.09
2022-11-10T09:06:42.539Z,95548.78
2022-11-10T09:09:09.067Z,95559.88
2022-11-10T09:11:35.469Z,95563.63
2022-11-10T09:14:01.946Z,95586.69
2022-11-10T09:16:28.416Z,95628.31
2022-11-10T09:18:54.760Z,95640.44
2022-11-10T09:21:21.173Z,95650.91
2022-11-10T09:23:48.154Z,95670.25
2022-11-10T09:26:14.561Z,95670.72
2022-11-10T09:28:40.904Z,95671.81
2022-11-10T09:31:07.446Z,95719.00
2022-11-10T09:33:33.852Z,95767.16
2022-11-10T09:36:02.109Z,95843.25
2022-11-10T09:38:28.546Z,95892.13
2022-11-10T09:41:02.923Z,95949.88
2022-11-10T09:43:45.963Z,95972.84
2022-11-10T09:46:23.684Z,95955.75
2022-11-10T09:48:59.105Z,95959.34
2022-11-10T09:51:26.290Z,96049.78
2022-11-10T09:54:10.897Z,96135.31
2022-11-10T09:56:37.514Z,96190.97
2022-11-10T09:59:07.386Z,96196.41
2022-11-10T10:01:46.130Z,96236.50
2022-11-10T10:04:51.659Z,96282.31
2022-11-10T10:07:22.862Z,96296.31
2022-11-10T10:10:13.118Z,96459.09
2022-11-10T10:13:45.484Z,96599.09
2022-11-10T10:16:47.107Z,96644.38
2022-11-10T10:19:16.560Z,96759.16
2022-11-10T10:21:45.984Z,96869.69
2022-11-10T10:24:21.190Z,97000.75
2022-11-10T10:26:53.771Z,97094.03
2022-11-10T10:29:34.533Z,97244.53
2022-11-10T10:32:03.687Z,97257.69
2022-11-10T10:34:31.551Z,97268.22
2022-11-10T10:36:57.959Z,97317.47
2022-11-10T10:39:30.267Z,97373.13
2022-11-10T10:41:56.743Z,97401.25
2022-11-10T10:44:23.150Z,97418.84
2022-11-10T10:46:51.441Z,97404.44
2022-11-10T10:49:29.702Z,97419.81
2022-11-10T10:52:10.763Z,97393.09
2022-11-10T10:54:38.163Z,97389.75
2022-11-10T10:57:30.016Z,97328.56
2022-11-10T11:00:18.662Z,97263.78
2022-11-10T11:02:45.011Z,97408.69
2022-11-10T11:05:18.078Z,97460.31
2022-11-10T11:07:58.192Z,97425.63
2022-11-10T11:10:26.965Z,97441.81
2022-11-10T11:12:53.313Z,97519.28
2022-11-10T11:15:30.342Z,97536.88
2022-11-10T11:18:02.503Z,97597.72
2022-11-10T11:20:49.363Z,97578.50
2022-11-10T11:23:21.413Z,97614.25
2022-11-10T11:25:47.787Z,97740.91
2022-11-10T11:28:32.432Z,97771.44
2022-11-10T11:31:19.502Z,97876.31
2022-11-10T11:34:03.206Z,97891.81
2022-11-10T11:36:32.312Z,97938.03
2022-11-10T11:39:05.363Z,97986.72
2022-11-10T11:42:04.087Z,97951.59
2022-11-10T11:44:50.673Z,97936.47
2022-11-10T11:47:48.035Z,97906.28
2022-11-10T11:50:22.363Z,98024.03
2022-11-10T11:53:00.583Z,98100.59
2022-11-10T11:55:32.967Z,98160.66
2022-11-10T11:58:17.831Z,98103.81
2022-11-10T12:01:21.415Z,98044.88
2022-11-10T12:03:48.538Z,98211.44
2022-11-10T12:06:23.961Z,98275.66
2022-11-10T12:09:28.058Z,98317.13
2022-11-10T12:12:12.683Z,98343.50
2022-11-10T12:14:45.883Z,98387.50
2022-11-10T12:17:29.145Z,98391.22
2022-11-10T12:20:13.843Z,98380.88
2022-11-10T12:22:49.605Z,98348.06
2022-11-10T12:25:31.113Z,98339.06
2022-11-10T12:28:09.357Z,98334.16
2022-11-10T12:30:35.776Z,98369.88
2022-11-10T12:33:05.231Z,98426.47
2022-11-10T12:35:34.072Z,98429.59
2022-11-10T12:38:03.995Z,98411.84
2022-11-10T12:40:31.075Z,98406.78
2022-11-10T12:43:01.974Z,98393.13
2022-11-10T12:45:45.559Z,98337.75
2022-11-10T12:48:12.485Z,98374.66
2022-11-10T12:51:03.165Z,98352.38
2022-11-10T12:53:30.720Z,98382.44
2022-11-10T12:56:00.195Z,98389.97
2022-11-10T12:58:26.892Z,98455.22
2022-11-10T13:01:00.993Z,98476.59
2022-11-10T13:03:34.828Z,98487.84
2022-11-10T13:06:05.350Z,98509.06
2022-11-10T13:08:36.020Z,98506.31
2022-11-10T13:11:11.687Z,98454.03
2022-11-10T13:13:46.086Z,98462.66
2022-11-10T13:16:35.007Z,98478.72
2022-11-10T13:19:01.506Z,98467.69
2022-11-10T13:22:06.291Z,98497.94
2022-11-10T13:24:39.752Z,98480.66
2022-11-10T13:27:12.950Z,98482.34
2022-11-10T13:29:42.468Z,98508.72
2022-11-10T13:32:11.749Z,98509.94
2022-11-10T13:34:38.820Z,98470.81
2022-11-10T13:37:33.308Z,98451.41
2022-11-10T13:40:18.674Z,98465.28
2022-11-10T13:42:47.293Z,98488.34
2022-11-10T13:45:46.500Z,98441.06
2022-11-10T13:48:12.880Z,98417.72
2022-11-10T13:51:06.606Z,98416.97
2022-11-10T13:54:06.936Z,98432.47
2022-11-10T13:56:54.588Z,98426.91
2022-11-10T13:59:22.675Z,98444.91
2022-11-10T14:01:49.011Z,98427.41
2022-11-10T14:04:43.670Z,98401.88
2022-11-10T14:07:17.646Z,98395.53
2022-11-10T14:09:53.051Z,98367.47
2022-11-10T14:12:57.999Z,98368.44
2022-11-10T14:15:41.645Z,98388.44
2022-11-10T14:18:25.128Z,98378.63
2022-11-10T14:20:56.751Z,98335.84
2022-11-10T14:23:30.413Z,98343.03
2022-11-10T14:26:03.158Z,98318.81
2022-11-10T14:28:33.054Z,98329.34
2022-11-10T14:30:59.499Z,98356.34
2022-11-10T14:33:26.489Z,98352.50
2022-11-10T14:35:57.677Z,98325.53
2022-11-10T14:38:29.348Z,98360.53
2022-11-10T14:40:57.612Z,98389.91
2022-11-10T14:43:28.094Z,98394.66
2022-11-10T14:45:54.507Z,98369.88
2022-11-10T14:48:23.036Z,98344.00
2022-11-10T14:50:50.063Z,98324.09
2022-11-10T14:53:26.713Z,98293.75
2022-11-10T14:55:54.959Z,98289.69
2022-11-10T14:58:26.677Z,98261.78
2022-11-10T15:00:53.046Z,98239.88
2022-11-10T15:03:38.749Z,98208.63
2022-11-10T15:06:07.706Z,98175.13
2022-11-10T15:08:34.216Z,98155.94
2022-11-10T15:11:00.609Z,98136.81
2022-11-10T15:13:29.253Z,98131.78
2022-11-10T15:16:27.237Z,98112.88
2022-11-10T15:18:54.895Z,98118.63
2022-11-10T15:21:22.551Z,98075.41
2022-11-10T15:23:53.223Z,98031.78
2022-11-10T15:26:23.919Z,97973.06
2022-11-10T15:28:50.263Z,97977.25
2022-11-10T15:31:25.794Z,97966.84
2022-11-10T15:33:56.729Z,97933.72
2022-11-10T15:36:23.095Z,97917.34
2022-11-10T15:39:04.825Z,97928.22
2022-11-10T15:41:33.344Z,97937.91
2022-11-10T15:44:32.331Z,97951.78
2022-11-10T15:46:58.857Z,97958.09
2022-11-10T15:49:33.664Z,97960.16
2022-11-10T15:52:01.820Z,97963.16
2022-11-10T15:54:32.608Z,97953.97
2022-11-10T15:56:58.976Z,97950.97
2022-11-10T15:59:25.328Z,97926.59
2022-11-10T16:01:51.816Z,97936.66
2022-11-10T16:04:18.482Z,97953.38
2022-11-10T16:06:45.237Z,97950.28
2022-11-10T16:09:12.038Z,97956.69
2022-11-10T16:11:38.545Z,97949.88
2022-11-10T16:14:04.969Z,97964.50
2022-11-10T16:16:31.657Z,97934.25
2022-11-10T16:18:58.091Z,97927.78
2022-11-10T16:21:25.368Z,97931.63
2022-11-10T16:23:52.496Z,97942.16
2022-11-10T16:26:21.215Z,97943.06
2022-11-10T16:28:47.695Z,97944.28
2022-11-10T16:31:18.215Z,97956.72
2022-11-10T16:33:45.357Z,97961.25
2022-11-10T16:36:28.962Z,97965.88
2022-11-10T16:38:55.414Z,97944.38
2022-11-10T16:41:21.820Z,97919.41
2022-11-10T16:43:48.248Z,97933.78
2022-11-10T16:46:25.616Z,97912.97
2022-11-10T16:48:53.866Z,97888.13
2022-11-10T16:51:27.244Z,97897.06
2022-11-10T16:53:53.630Z,97916.31
2022-11-10T16:56:21.373Z,97926.13
2022-11-10T16:58:47.728Z,97921.09
2022-11-10T17:01:19.447Z,97918.56
2022-11-10T17:03:47.279Z,97914.63
2022-11-10T17:06:14.280Z,97890.50
2022-11-10T17:08:40.910Z,97836.78
2022-11-10T17:11:07.871Z,97846.81
2022-11-10T17:13:34.276Z,97823.19
2022-11-10T17:16:06.086Z,97816.50
2022-11-10T17:18:32.563Z,97827.22
2022-11-10T17:20:58.933Z,97798.09
2022-11-10T17:23:25.793Z,97810.50
2022-11-10T17:25:54.057Z,97826.97
2022-11-10T17:28:20.400Z,97839.59
2022-11-10T17:30:46.845Z,97848.06
2022-11-10T17:33:13.229Z,97815.97
2022-11-10T17:35:43.747Z,97787.22
2022-11-10T17:38:17.171Z,97751.81
2022-11-10T17:40:43.721Z,97712.44
2022-11-10T17:43:11.652Z,97668.91
2022-11-10T17:45:38.531Z,97631.31
2022-11-10T17:48:05.201Z,97598.16
2022-11-10T17:50:31.623Z,97592.06
2022-11-10T17:53:00.549Z,97568.97
2022-11-10T17:55:33.779Z,97535.94
2022-11-10T17:58:00.748Z,97508.22
2022-11-10T18:00:27.139Z,97477.94
2022-11-10T18:02:56.338Z,97452.69
2022-11-10T18:05:22.726Z,97421.44
2022-11-10T18:07:49.993Z,97399.63
2022-11-10T18:10:16.415Z,97396.31
2022-11-10T18:12:42.807Z,97380.44
2022-11-10T18:15:16.280Z,97374.47
2022-11-10T18:17:42.724Z,97357.06
2022-11-10T18:20:12.724Z,97355.41
2022-11-10T18:22:39.465Z,97354.00
2022-11-10T18:25:08.071Z,97345.44
2022-11-10T18:27:34.582Z,97345.44
2022-11-10T18:30:00.951Z,97350.69
2022-11-10T18:32:27.375Z,97349.38
2022-11-10T18:34:53.740Z,97334.94
2022-11-10T18:37:20.885Z,97358.69
2022-11-10T18:39:47.232Z,97373.22
2022-11-10T18:42:13.661Z,97391.56
2022-11-10T18:44:40.101Z,97395.38
2022-11-10T18:47:07.139Z,97393.97
2022-11-10T18:49:33.674Z,97390.97
2022-11-10T18:52:00.314Z,97387.53
2022-11-10T18:54:27.186Z,97391.09
2022-11-10T18:56:53.686Z,97390.38
2022-11-10T18:59:20.065Z,97406.69
2022-11-10T19:01:46.638Z,97400.06
2022-11-10T19:04:13.466Z,97400.28
2022-11-10T19:06:40.153Z,97389.22
2022-11-10T19:09:06.569Z,97379.81
2022-11-10T19:11:33.842Z,97369.06
2022-11-10T19:14:03.142Z,97378.97
2022-11-10T19:16:29.964Z,97366.84
2022-11-10T19:18:56.928Z,97351.47
2022-11-10T19:21:24.637Z,97343.59
2022-11-10T19:23:57.237Z,97329.81
2022-11-10T19:26:23.914Z,97343.88
2022-11-10T19:28:50.355Z,97342.19
2022-11-10T19:31:18.230Z,97333.63
2022-11-10T19:33:46.517Z,97316.59
2022-11-10T19:36:17.457Z,97304.56
2022-11-10T19:38:43.797Z,97292.44
2022-11-10T19:41:15.122Z,97282.19
2022-11-10T19:43:46.221Z,97290.06
2022-11-10T19:46:15.398Z,97282.19
2022-11-10T19:48:42.255Z,97301.50
2022-11-10T19:51:11.636Z,97310.06
2022-11-10T19:53:37.985Z,97323.44
2022-11-10T19:56:06.562Z,97313.31
2022-11-10T19:58:35.980Z,97302.00
2022-11-10T20:01:02.326Z,97298.44
2022-11-10T20:03:29.242Z,97302.69
2022-11-10T20:06:00.125Z,97308.91
2022-11-10T20:08:26.564Z,97314.88
2022-11-10T20:10:52.944Z,97293.94
2022-11-10T20:13:19.418Z,97273.22
2022-11-10T20:15:45.828Z,97273.47
2022-11-10T20:18:12.236Z,97268.47
2022-11-10T20:20:38.704Z,97274.41
2022-11-10T20:23:05.845Z,97291.09
2022-11-10T20:25:32.321Z,97305.16
2022-11-10T20:28:01.197Z,97321.56
2022-11-10T20:30:27.574Z,97339.91
2022-11-10T20:32:53.926Z,97332.44
2022-11-10T20:35:20.281Z,97330.78
2022-11-10T20:37:46.862Z,97311.97
2022-11-10T20:40:38.136Z,97302.56
2022-11-10T20:42:59.876Z,97265.19
2022-11-10T20:45:26.361Z,97266.94
2022-11-10T20:47:52.950Z,97272.34
2022-11-10T20:50:23.937Z,97274.97
2022-11-10T20:52:50.828Z,97257.56
2022-11-10T20:55:18.479Z,97269.13
2022-11-10T20:57:45.046Z,97279.34
2022-11-10T21:00:11.851Z,97290.69
2022-11-10T21:02:38.300Z,97302.81
2022-11-10T21:05:05.781Z,97325.41
2022-11-10T21:07:32.207Z,97320.41
2022-11-10T21:09:58.607Z,97329.25
2022-11-10T21:12:43.646Z,97344.13
2022-11-10T21:15:10.129Z,97332.59
2022-11-10T21:17:39.062Z,97331.16
2022-11-10T21:20:09.844Z,97327.81
2022-11-10T21:22:36.224Z,97332.47
2022-11-10T21:25:02.613Z,97315.91
2022-11-10T21:27:28.991Z,97305.69
2022-11-10T21:29:55.864Z,97318.78
2022-11-10T21:32:22.857Z,97304.63
2022-11-10T21:34:49.220Z,97318.06
2022-11-10T21:37:15.605Z,97328.31
2022-11-10T21:39:43.873Z,97335.81
2022-11-10T21:42:10.601Z,97316.41
2022-11-10T21:44:37.341Z,97312.25
2022-11-10T21:47:03.735Z,97321.88
2022-11-10T21:49:30.075Z,97324.38
2022-11-10T21:51:56.449Z,97336.66
2022-11-10T21:54:22.854Z,97341.88
2022-11-10T21:56:49.289Z,97340.19
2022-11-10T21:59:15.632Z,97345.44
2022-11-10T22:01:42.041Z,97352.59
2022-11-10T22:04:08.476Z,97376.75
2022-11-10T22:06:53.593Z,97384.25
2022-11-10T22:09:39.970Z,97412.34
2022-11-10T22:12:27.097Z,97415.69
2022-11-10T22:15:12.206Z,97426.16
2022-11-10T22:17:57.201Z,97446.03
2022-11-10T22:20:23.556Z,97473.31
2022-11-10T22:22:50.258Z,97488.28
2022-11-10T22:25:16.690Z,97492.59
2022-11-10T22:27:43.054Z,97493.66
2022-11-10T22:30:09.834Z,97499.13
2022-11-10T22:32:36.195Z,97488.06
2022-11-10T22:35:02.529Z,97493.03
2022-11-10T22:37:32.823Z,97484.91
2022-11-10T22:40:18.293Z,97463.03
2022-11-10T22:43:03.269Z,97446.84
2022-11-10T22:45:30.033Z,97443.28
2022-11-10T22:48:15.156Z,97437.69
2022-11-10T22:50:41.516Z,97428.88
2022-11-10T22:53:07.940Z,97443.25
2022-11-10T22:55:34.317Z,97432.06
2022-11-10T22:58:00.699Z,97418.88
2022-11-10T23:00:27.081Z,97432.06
2022-11-10T23:02:53.460Z,97434.00
2022-11-10T23:05:19.882Z,97413.06
2022-11-10T23:07:46.328Z,97414.72
2022-11-10T23:10:12.929Z,97411.34
2022-11-10T23:12:39.278Z,97421.84
2022-11-10T23:15:05.944Z,97425.19
2022-11-10T23:17:32.397Z,97423.00
2022-11-10T23:19:58.843Z,97432.78
2022-11-10T23:22:25.173Z,97417.66
2022-11-10T23:24:56.794Z,97423.75
2022-11-10T23:27:23.802Z,97425.41
2022-11-10T23:29:51.715Z,97432.78
2022-11-10T23:32:18.099Z,97439.66
2022-11-10T23:34:44.465Z,97448.78
2022-11-10T23:37:10.844Z,97439.06
2022-11-10T23:39:37.212Z,97448.91
2022-11-10T23:42:03.580Z,97446.41
2022-11-10T23:44:30.078Z,97433.00
2022-11-10T23:46:56.441Z,97442.00
2022-11-10T23:49:22.843Z,97458.16
2022-11-10T23:51:49.200Z,97424.03
2022-11-10T23:54:15.558Z,97421.53
2022-11-10T23:56:41.924Z,97416.28
2022-11-10T23:59:08.302Z,97423.31
